sensor_id;sensor_type;location;lat;lon;timestamp;P1;durP1;ratioP1;P2;durP2;ratioP2
79249;SDS011;68679;51.030;7.584;2023-05-08T00:00:16;10.63;;;6.00;;
79249;SDS011;68679;51.030;7.584;2023-05-08T00:02:42;17.90;;;5.30;;
79249;SDS011;68679;51.030;7.584;2023-05-08T00:05:07;8.63;;;5.57;;
79249;SDS011;68679;51.030;7.584;2023-05-08T00:07:32;10.35;;;5.70;;
79249;SDS011;68679;51.030;7.584;2023-05-08T00:09:58;11.90;;;5.43;;
79249;SDS011;68679;51.030;7.584;2023-05-08T00:12:23;12.87;;;6.13;;
79249;SDS011;68679;51.030;7.584;2023-05-08T00:14:48;12.27;;;6.37;;
79249;SDS011;68679;51.030;7.584;2023-05-08T00:17:13;13.47;;;5.83;;
79249;SDS011;68679;51.030;7.584;2023-05-08T00:19:39;9.87;;;6.07;;
79249;SDS011;68679;51.030;7.584;2023-05-08T00:22:04;11.37;;;5.73;;
79249;SDS011;68679;51.030;7.584;2023-05-08T00:24:29;9.10;;;5.63;;
79249;SDS011;68679;51.030;7.584;2023-05-08T00:26:54;11.90;;;6.10;;
79249;SDS011;68679;51.030;7.584;2023-05-08T00:29:20;12.03;;;6.27;;
79249;SDS011;68679;51.030;7.584;2023-05-08T00:31:45;12.97;;;6.60;;
79249;SDS011;68679;51.030;7.584;2023-05-08T00:34:10;15.97;;;6.83;;
79249;SDS011;68679;51.030;7.584;2023-05-08T00:36:36;13.80;;;7.13;;
79249;SDS011;68679;51.030;7.584;2023-05-08T00:39:01;12.67;;;6.67;;
79249;SDS011;68679;51.030;7.584;2023-05-08T00:41:26;13.23;;;7.50;;
79249;SDS011;68679;51.030;7.584;2023-05-08T00:43:51;12.80;;;6.70;;
79249;SDS011;68679;51.030;7.584;2023-05-08T00:46:17;13.53;;;7.37;;
79249;SDS011;68679;51.030;7.584;2023-05-08T00:48:42;16.93;;;7.47;;
79249;SDS011;68679;51.030;7.584;2023-05-08T00:51:09;14.85;;;8.20;;
79249;SDS011;68679;51.030;7.584;2023-05-08T00:53:36;14.85;;;7.55;;
79249;SDS011;68679;51.030;7.584;2023-05-08T00:56:05;19.55;;;7.60;;
79249;SDS011;68679;51.030;7.584;2023-05-08T00:58:33;14.18;;;7.20;;
79249;SDS011;68679;51.030;7.584;2023-05-08T01:00:58;13.05;;;6.88;;
79249;SDS011;68679;51.030;7.584;2023-05-08T01:03:24;15.70;;;7.13;;
79249;SDS011;68679;51.030;7.584;2023-05-08T01:05:50;13.23;;;7.65;;
79249;SDS011;68679;51.030;7.584;2023-05-08T01:08:15;13.85;;;7.47;;
79249;SDS011;68679;51.030;7.584;2023-05-08T01:10:53;15.20;;;8.27;;
79249;SDS011;68679;51.030;7.584;2023-05-08T01:13:51;12.88;;;7.32;;
79249;SDS011;68679;51.030;7.584;2023-05-08T01:19:31;14.45;;;8.00;;
79249;SDS011;68679;51.030;7.584;2023-05-08T01:25:26;14.55;;;8.20;;
79249;SDS011;68679;51.030;7.584;2023-05-08T01:34:08;11.75;;;8.13;;
79249;SDS011;68679;51.030;7.584;2023-05-08T01:36:49;14.23;;;8.13;;
79249;SDS011;68679;51.030;7.584;2023-05-08T01:39:28;17.55;;;8.00;;
79249;SDS011;68679;51.030;7.584;2023-05-08T01:42:11;14.75;;;8.05;;
79249;SDS011;68679;51.030;7.584;2023-05-08T01:44:47;18.55;;;8.30;;
79249;SDS011;68679;51.030;7.584;2023-05-08T01:47:19;14.57;;;7.82;;
79249;SDS011;68679;51.030;7.584;2023-05-08T01:49:48;11.25;;;7.82;;
79249;SDS011;68679;51.030;7.584;2023-05-08T01:52:25;12.65;;;7.80;;
79249;SDS011;68679;51.030;7.584;2023-05-08T01:55:03;14.77;;;8.52;;
79249;SDS011;68679;51.030;7.584;2023-05-08T01:57:33;17.73;;;8.85;;
79249;SDS011;68679;51.030;7.584;2023-05-08T02:00:04;14.55;;;8.93;;
79249;SDS011;68679;51.030;7.584;2023-05-08T02:02:31;16.13;;;7.60;;
79249;SDS011;68679;51.030;7.584;2023-05-08T02:04:58;17.23;;;8.65;;
79249;SDS011;68679;51.030;7.584;2023-05-08T02:07:28;18.77;;;9.77;;
79249;SDS011;68679;51.030;7.584;2023-05-08T02:09:54;18.00;;;9.75;;
79249;SDS011;68679;51.030;7.584;2023-05-08T02:12:21;17.67;;;8.93;;
79249;SDS011;68679;51.030;7.584;2023-05-08T02:14:48;18.48;;;9.38;;
79249;SDS011;68679;51.030;7.584;2023-05-08T02:17:17;14.15;;;8.75;;
79249;SDS011;68679;51.030;7.584;2023-05-08T02:19:43;18.52;;;8.65;;
79249;SDS011;68679;51.030;7.584;2023-05-08T02:22:09;13.60;;;8.57;;
79249;SDS011;68679;51.030;7.584;2023-05-08T02:24:37;15.90;;;8.55;;
79249;SDS011;68679;51.030;7.584;2023-05-08T02:27:04;17.45;;;10.27;;
79249;SDS011;68679;51.030;7.584;2023-05-08T02:29:30;16.38;;;9.55;;
79249;SDS011;68679;51.030;7.584;2023-05-08T02:31:56;19.17;;;9.30;;
79249;SDS011;68679;51.030;7.584;2023-05-08T02:34:24;16.02;;;9.18;;
79249;SDS011;68679;51.030;7.584;2023-05-08T02:36:52;18.45;;;9.18;;
79249;SDS011;68679;51.030;7.584;2023-05-08T02:39:18;17.92;;;9.50;;
79249;SDS011;68679;51.030;7.584;2023-05-08T02:41:49;16.85;;;8.32;;
79249;SDS011;68679;51.030;7.584;2023-05-08T02:44:14;13.15;;;8.93;;
79249;SDS011;68679;51.030;7.584;2023-05-08T02:46:43;15.70;;;8.70;;
79249;SDS011;68679;51.030;7.584;2023-05-08T02:49:47;15.40;;;9.40;;
79249;SDS011;68679;51.030;7.584;2023-05-08T02:52:27;15.95;;;9.07;;
79249;SDS011;68679;51.030;7.584;2023-05-08T02:57:47;15.43;;;9.02;;
79249;SDS011;68679;51.030;7.584;2023-05-08T03:00:25;15.80;;;8.73;;
79249;SDS011;68679;51.030;7.584;2023-05-08T03:03:00;17.17;;;9.63;;
79249;SDS011;68679;51.030;7.584;2023-05-08T03:05:36;15.00;;;9.00;;
79249;SDS011;68679;51.030;7.584;2023-05-08T03:08:04;15.20;;;9.65;;
79249;SDS011;68679;51.030;7.584;2023-05-08T03:10:33;16.35;;;9.65;;
79249;SDS011;68679;51.030;7.584;2023-05-08T03:13:03;15.32;;;9.27;;
79249;SDS011;68679;51.030;7.584;2023-05-08T03:15:34;16.52;;;9.48;;
79249;SDS011;68679;51.030;7.584;2023-05-08T03:18:06;15.23;;;9.13;;
79249;SDS011;68679;51.030;7.584;2023-05-08T03:20:39;13.55;;;8.98;;
79249;SDS011;68679;51.030;7.584;2023-05-08T03:23:17;14.75;;;8.63;;
79249;SDS011;68679;51.030;7.584;2023-05-08T03:25:44;17.67;;;10.15;;
79249;SDS011;68679;51.030;7.584;2023-05-08T03:28:10;17.42;;;9.25;;
79249;SDS011;68679;51.030;7.584;2023-05-08T03:30:37;16.75;;;9.63;;
79249;SDS011;68679;51.030;7.584;2023-05-08T03:33:04;17.80;;;9.25;;
79249;SDS011;68679;51.030;7.584;2023-05-08T03:35:32;19.50;;;9.15;;
79249;SDS011;68679;51.030;7.584;2023-05-08T03:38:00;16.38;;;9.48;;
79249;SDS011;68679;51.030;7.584;2023-05-08T03:40:26;17.58;;;9.68;;
79249;SDS011;68679;51.030;7.584;2023-05-08T03:42:51;15.90;;;9.98;;
79249;SDS011;68679;51.030;7.584;2023-05-08T03:45:17;17.52;;;9.65;;
79249;SDS011;68679;51.030;7.584;2023-05-08T03:47:43;17.55;;;10.55;;
79249;SDS011;68679;51.030;7.584;2023-05-08T03:50:10;16.05;;;10.13;;
79249;SDS011;68679;51.030;7.584;2023-05-08T03:52:35;17.23;;;9.53;;
79249;SDS011;68679;51.030;7.584;2023-05-08T03:55:02;20.30;;;10.23;;
79249;SDS011;68679;51.030;7.584;2023-05-08T03:57:30;18.67;;;9.70;;
79249;SDS011;68679;51.030;7.584;2023-05-08T04:00:05;14.38;;;9.57;;
79249;SDS011;68679;51.030;7.584;2023-05-08T04:02:43;14.57;;;9.73;;
79249;SDS011;68679;51.030;7.584;2023-05-08T04:05:23;18.23;;;11.07;;
79249;SDS011;68679;51.030;7.584;2023-05-08T04:07:57;16.50;;;9.18;;
79249;SDS011;68679;51.030;7.584;2023-05-08T04:10:54;16.35;;;9.65;;
79249;SDS011;68679;51.030;7.584;2023-05-08T04:13:29;18.00;;;8.80;;
79249;SDS011;68679;51.030;7.584;2023-05-08T04:16:06;16.42;;;9.82;;
79249;SDS011;68679;51.030;7.584;2023-05-08T04:18:37;15.77;;;9.43;;
79249;SDS011;68679;51.030;7.584;2023-05-08T04:21:09;15.85;;;9.85;;
79249;SDS011;68679;51.030;7.584;2023-05-08T04:26:05;16.38;;;9.50;;
79249;SDS011;68679;51.030;7.584;2023-05-08T04:28:32;15.68;;;9.32;;
79249;SDS011;68679;51.030;7.584;2023-05-08T04:30:58;17.20;;;9.68;;
79249;SDS011;68679;51.030;7.584;2023-05-08T04:33:25;15.05;;;10.23;;
79249;SDS011;68679;51.030;7.584;2023-05-08T04:35:52;16.02;;;9.63;;
79249;SDS011;68679;51.030;7.584;2023-05-08T04:38:18;15.70;;;9.88;;
79249;SDS011;68679;51.030;7.584;2023-05-08T04:40:43;16.87;;;10.30;;
79249;SDS011;68679;51.030;7.584;2023-05-08T04:43:08;17.23;;;10.50;;
79249;SDS011;68679;51.030;7.584;2023-05-08T04:45:34;18.40;;;11.82;;
79249;SDS011;68679;51.030;7.584;2023-05-08T04:47:59;19.17;;;10.63;;
79249;SDS011;68679;51.030;7.584;2023-05-08T04:50:24;19.03;;;10.97;;
79249;SDS011;68679;51.030;7.584;2023-05-08T04:52:50;18.00;;;11.18;;
79249;SDS011;68679;51.030;7.584;2023-05-08T04:55:15;15.90;;;10.17;;
79249;SDS011;68679;51.030;7.584;2023-05-08T04:57:40;15.60;;;10.25;;
79249;SDS011;68679;51.030;7.584;2023-05-08T05:00:06;14.73;;;9.17;;
79249;SDS011;68679;51.030;7.584;2023-05-08T05:02:31;14.82;;;8.98;;
79249;SDS011;68679;51.030;7.584;2023-05-08T05:04:57;15.90;;;9.87;;
79249;SDS011;68679;51.030;7.584;2023-05-08T05:07:23;18.33;;;9.63;;
79249;SDS011;68679;51.030;7.584;2023-05-08T05:09:48;16.77;;;10.07;;
79249;SDS011;68679;51.030;7.584;2023-05-08T05:12:13;15.27;;;9.13;;
79249;SDS011;68679;51.030;7.584;2023-05-08T05:14:39;17.30;;;9.60;;
79249;SDS011;68679;51.030;7.584;2023-05-08T05:17:04;15.60;;;9.87;;
79249;SDS011;68679;51.030;7.584;2023-05-08T05:19:30;15.27;;;9.87;;
79249;SDS011;68679;51.030;7.584;2023-05-08T05:21:55;16.00;;;9.98;;
79249;SDS011;68679;51.030;7.584;2023-05-08T05:24:20;18.73;;;9.73;;
79249;SDS011;68679;51.030;7.584;2023-05-08T05:26:46;16.47;;;10.10;;
79249;SDS011;68679;51.030;7.584;2023-05-08T05:29:11;17.97;;;9.83;;
79249;SDS011;68679;51.030;7.584;2023-05-08T05:31:37;16.63;;;10.18;;
79249;SDS011;68679;51.030;7.584;2023-05-08T05:34:02;14.70;;;9.50;;
79249;SDS011;68679;51.030;7.584;2023-05-08T05:36:27;21.13;;;10.38;;
79249;SDS011;68679;51.030;7.584;2023-05-08T05:38:53;18.48;;;10.30;;
79249;SDS011;68679;51.030;7.584;2023-05-08T05:41:18;17.47;;;10.20;;
79249;SDS011;68679;51.030;7.584;2023-05-08T05:43:43;17.10;;;9.47;;
79249;SDS011;68679;51.030;7.584;2023-05-08T05:46:09;18.17;;;10.80;;
79249;SDS011;68679;51.030;7.584;2023-05-08T05:48:35;17.55;;;11.02;;
79249;SDS011;68679;51.030;7.584;2023-05-08T05:51:00;21.23;;;11.65;;
79249;SDS011;68679;51.030;7.584;2023-05-08T05:53:26;17.33;;;11.35;;
79249;SDS011;68679;51.030;7.584;2023-05-08T05:55:51;20.20;;;10.57;;
79249;SDS011;68679;51.030;7.584;2023-05-08T05:58:17;17.58;;;10.85;;
79249;SDS011;68679;51.030;7.584;2023-05-08T06:00:43;19.02;;;9.90;;
79249;SDS011;68679;51.030;7.584;2023-05-08T06:03:08;19.20;;;10.02;;
79249;SDS011;68679;51.030;7.584;2023-05-08T06:05:34;18.27;;;10.23;;
79249;SDS011;68679;51.030;7.584;2023-05-08T06:08:00;19.13;;;10.27;;
79249;SDS011;68679;51.030;7.584;2023-05-08T06:10:25;16.43;;;10.80;;
79249;SDS011;68679;51.030;7.584;2023-05-08T06:12:50;16.40;;;11.05;;
79249;SDS011;68679;51.030;7.584;2023-05-08T06:15:16;17.13;;;10.50;;
79249;SDS011;68679;51.030;7.584;2023-05-08T06:17:41;19.23;;;10.38;;
79249;SDS011;68679;51.030;7.584;2023-05-08T06:20:06;17.33;;;9.83;;
79249;SDS011;68679;51.030;7.584;2023-05-08T06:22:32;18.13;;;9.32;;
79249;SDS011;68679;51.030;7.584;2023-05-08T06:25:03;19.42;;;10.20;;
79249;SDS011;68679;51.030;7.584;2023-05-08T06:27:30;14.65;;;9.18;;
79249;SDS011;68679;51.030;7.584;2023-05-08T06:29:56;16.42;;;10.32;;
79249;SDS011;68679;51.030;7.584;2023-05-08T06:32:21;16.57;;;10.17;;
79249;SDS011;68679;51.030;7.584;2023-05-08T06:34:47;16.77;;;10.40;;
79249;SDS011;68679;51.030;7.584;2023-05-08T06:37:12;15.80;;;10.63;;
79249;SDS011;68679;51.030;7.584;2023-05-08T06:39:38;18.35;;;12.57;;
79249;SDS011;68679;51.030;7.584;2023-05-08T06:42:03;20.10;;;9.80;;
79249;SDS011;68679;51.030;7.584;2023-05-08T06:44:30;18.27;;;10.65;;
79249;SDS011;68679;51.030;7.584;2023-05-08T06:46:58;20.02;;;10.30;;
79249;SDS011;68679;51.030;7.584;2023-05-08T06:49:24;15.23;;;9.50;;
79249;SDS011;68679;51.030;7.584;2023-05-08T06:51:49;17.40;;;10.63;;
79249;SDS011;68679;51.030;7.584;2023-05-08T06:54:14;16.92;;;9.82;;
79249;SDS011;68679;51.030;7.584;2023-05-08T06:56:40;19.90;;;10.90;;
79249;SDS011;68679;51.030;7.584;2023-05-08T06:59:05;17.40;;;9.50;;
79249;SDS011;68679;51.030;7.584;2023-05-08T07:01:31;17.67;;;11.73;;
79249;SDS011;68679;51.030;7.584;2023-05-08T07:03:56;19.70;;;12.57;;
79249;SDS011;68679;51.030;7.584;2023-05-08T07:06:21;16.97;;;11.43;;
79249;SDS011;68679;51.030;7.584;2023-05-08T07:08:47;20.10;;;12.20;;
79249;SDS011;68679;51.030;7.584;2023-05-08T07:11:13;18.75;;;11.18;;
79249;SDS011;68679;51.030;7.584;2023-05-08T07:13:38;20.03;;;11.50;;
79249;SDS011;68679;51.030;7.584;2023-05-08T07:16:13;18.03;;;11.13;;
79249;SDS011;68679;51.030;7.584;2023-05-08T07:18:39;16.77;;;10.63;;
79249;SDS011;68679;51.030;7.584;2023-05-08T07:21:04;17.30;;;10.77;;
79249;SDS011;68679;51.030;7.584;2023-05-08T07:23:29;18.30;;;11.60;;
79249;SDS011;68679;51.030;7.584;2023-05-08T07:25:55;18.92;;;11.50;;
79249;SDS011;68679;51.030;7.584;2023-05-08T07:28:21;16.15;;;11.00;;
79249;SDS011;68679;51.030;7.584;2023-05-08T07:30:47;16.73;;;11.57;;
79249;SDS011;68679;51.030;7.584;2023-05-08T07:33:12;15.63;;;11.00;;
79249;SDS011;68679;51.030;7.584;2023-05-08T07:35:38;19.00;;;11.17;;
79249;SDS011;68679;51.030;7.584;2023-05-08T07:38:03;17.98;;;11.13;;
79249;SDS011;68679;51.030;7.584;2023-05-08T07:40:28;19.30;;;11.13;;
79249;SDS011;68679;51.030;7.584;2023-05-08T07:42:54;19.10;;;10.88;;
79249;SDS011;68679;51.030;7.584;2023-05-08T07:45:19;17.33;;;11.20;;
79249;SDS011;68679;51.030;7.584;2023-05-08T07:47:54;13.82;;;9.43;;
79249;SDS011;68679;51.030;7.584;2023-05-08T07:50:21;17.65;;;10.93;;
79249;SDS011;68679;51.030;7.584;2023-05-08T07:52:48;15.68;;;9.95;;
79249;SDS011;68679;51.030;7.584;2023-05-08T07:55:14;14.75;;;9.30;;
79249;SDS011;68679;51.030;7.584;2023-05-08T07:57:40;16.23;;;10.70;;
79249;SDS011;68679;51.030;7.584;2023-05-08T08:00:07;16.95;;;10.38;;
79249;SDS011;68679;51.030;7.584;2023-05-08T08:02:34;17.90;;;11.35;;
79249;SDS011;68679;51.030;7.584;2023-05-08T08:05:00;18.17;;;12.10;;
79249;SDS011;68679;51.030;7.584;2023-05-08T08:07:25;16.30;;;10.07;;
79249;SDS011;68679;51.030;7.584;2023-05-08T08:09:50;16.92;;;10.70;;
79249;SDS011;68679;51.030;7.584;2023-05-08T08:12:16;18.83;;;11.47;;
79249;SDS011;68679;51.030;7.584;2023-05-08T08:14:41;15.57;;;10.75;;
79249;SDS011;68679;51.030;7.584;2023-05-08T08:17:06;15.00;;;10.17;;
79249;SDS011;68679;51.030;7.584;2023-05-08T08:19:32;15.23;;;10.33;;
79249;SDS011;68679;51.030;7.584;2023-05-08T08:21:57;18.43;;;11.27;;
79249;SDS011;68679;51.030;7.584;2023-05-08T08:24:22;18.10;;;10.57;;
79249;SDS011;68679;51.030;7.584;2023-05-08T08:26:48;16.00;;;10.65;;
79249;SDS011;68679;51.030;7.584;2023-05-08T08:29:13;16.23;;;10.55;;
79249;SDS011;68679;51.030;7.584;2023-05-08T08:31:39;16.60;;;10.85;;
79249;SDS011;68679;51.030;7.584;2023-05-08T08:34:04;16.20;;;10.27;;
79249;SDS011;68679;51.030;7.584;2023-05-08T08:36:29;19.53;;;11.93;;
79249;SDS011;68679;51.030;7.584;2023-05-08T08:38:55;15.73;;;9.97;;
79249;SDS011;68679;51.030;7.584;2023-05-08T08:41:20;16.87;;;10.57;;
79249;SDS011;68679;51.030;7.584;2023-05-08T08:43:47;16.25;;;10.75;;
79249;SDS011;68679;51.030;7.584;2023-05-08T08:46:13;17.27;;;11.50;;
79249;SDS011;68679;51.030;7.584;2023-05-08T08:48:42;13.73;;;9.88;;
79249;SDS011;68679;51.030;7.584;2023-05-08T08:51:11;17.65;;;11.63;;
79249;SDS011;68679;51.030;7.584;2023-05-08T08:53:43;14.82;;;9.93;;
79249;SDS011;68679;51.030;7.584;2023-05-08T08:56:13;17.10;;;10.73;;
79249;SDS011;68679;51.030;7.584;2023-05-08T08:58:51;14.82;;;9.70;;
79249;SDS011;68679;51.030;7.584;2023-05-08T09:01:20;15.63;;;10.07;;
79249;SDS011;68679;51.030;7.584;2023-05-08T09:03:47;16.08;;;10.60;;
79249;SDS011;68679;51.030;7.584;2023-05-08T09:06:13;15.15;;;10.18;;
79249;SDS011;68679;51.030;7.584;2023-05-08T09:08:39;16.58;;;9.90;;
79249;SDS011;68679;51.030;7.584;2023-05-08T09:11:07;17.88;;;10.45;;
79249;SDS011;68679;51.030;7.584;2023-05-08T09:13:32;16.40;;;10.00;;
79249;SDS011;68679;51.030;7.584;2023-05-08T09:15:58;15.13;;;9.30;;
79249;SDS011;68679;51.030;7.584;2023-05-08T09:18:23;16.50;;;11.02;;
79249;SDS011;68679;51.030;7.584;2023-05-08T09:20:49;18.00;;;10.80;;
79249;SDS011;68679;51.030;7.584;2023-05-08T09:23:15;18.45;;;11.50;;
79249;SDS011;68679;51.030;7.584;2023-05-08T09:25:42;16.80;;;10.32;;
79249;SDS011;68679;51.030;7.584;2023-05-08T09:30:48;16.85;;;10.43;;
79249;SDS011;68679;51.030;7.584;2023-05-08T09:33:15;16.73;;;11.18;;
79249;SDS011;68679;51.030;7.584;2023-05-08T09:35:41;15.15;;;9.32;;
79249;SDS011;68679;51.030;7.584;2023-05-08T09:38:06;17.77;;;10.27;;
79249;SDS011;68679;51.030;7.584;2023-05-08T09:40:32;18.53;;;11.50;;
79249;SDS011;68679;51.030;7.584;2023-05-08T09:42:57;15.73;;;9.37;;
79249;SDS011;68679;51.030;7.584;2023-05-08T09:45:36;16.00;;;10.77;;
79249;SDS011;68679;51.030;7.584;2023-05-08T09:48:02;16.10;;;9.80;;
79249;SDS011;68679;51.030;7.584;2023-05-08T09:50:28;15.82;;;10.15;;
79249;SDS011;68679;51.030;7.584;2023-05-08T09:52:53;16.23;;;9.93;;
79249;SDS011;68679;51.030;7.584;2023-05-08T09:55:19;14.70;;;9.23;;
79249;SDS011;68679;51.030;7.584;2023-05-08T09:57:55;16.98;;;9.93;;
79249;SDS011;68679;51.030;7.584;2023-05-08T10:00:22;16.00;;;9.20;;
79249;SDS011;68679;51.030;7.584;2023-05-08T10:02:53;15.63;;;10.68;;
79249;SDS011;68679;51.030;7.584;2023-05-08T10:05:25;16.77;;;10.60;;
79249;SDS011;68679;51.030;7.584;2023-05-08T10:07:52;19.17;;;10.45;;
79249;SDS011;68679;51.030;7.584;2023-05-08T10:10:24;13.73;;;9.30;;
79249;SDS011;68679;51.030;7.584;2023-05-08T10:12:51;13.38;;;9.00;;
79249;SDS011;68679;51.030;7.584;2023-05-08T10:17:53;17.30;;;10.38;;
79249;SDS011;68679;51.030;7.584;2023-05-08T10:20:24;14.77;;;9.95;;
79249;SDS011;68679;51.030;7.584;2023-05-08T10:22:54;12.27;;;8.27;;
79249;SDS011;68679;51.030;7.584;2023-05-08T10:25:21;12.90;;;9.23;;
79249;SDS011;68679;51.030;7.584;2023-05-08T10:30:37;15.65;;;10.05;;
79249;SDS011;68679;51.030;7.584;2023-05-08T10:33:08;18.60;;;10.85;;
79249;SDS011;68679;51.030;7.584;2023-05-08T10:35:35;15.80;;;9.82;;
79249;SDS011;68679;51.030;7.584;2023-05-08T10:38:01;20.67;;;12.20;;
79249;SDS011;68679;51.030;7.584;2023-05-08T10:40:28;21.42;;;12.23;;
79249;SDS011;68679;51.030;7.584;2023-05-08T10:42:55;21.20;;;12.93;;
79249;SDS011;68679;51.030;7.584;2023-05-08T10:45:21;17.30;;;10.63;;
79249;SDS011;68679;51.030;7.584;2023-05-08T10:53:19;15.65;;;10.18;;
79249;SDS011;68679;51.030;7.584;2023-05-08T10:55:52;16.17;;;10.88;;
79249;SDS011;68679;51.030;7.584;2023-05-08T11:03:15;16.58;;;9.75;;
79249;SDS011;68679;51.030;7.584;2023-05-08T11:05:45;16.83;;;10.68;;
79249;SDS011;68679;51.030;7.584;2023-05-08T11:10:42;20.38;;;13.05;;
79249;SDS011;68679;51.030;7.584;2023-05-08T11:13:36;16.50;;;11.13;;
79249;SDS011;68679;51.030;7.584;2023-05-08T11:16:05;17.98;;;9.80;;
79249;SDS011;68679;51.030;7.584;2023-05-08T11:18:31;14.60;;;9.90;;
79249;SDS011;68679;51.030;7.584;2023-05-08T11:21:00;16.48;;;11.18;;
79249;SDS011;68679;51.030;7.584;2023-05-08T11:23:33;17.23;;;11.07;;
79249;SDS011;68679;51.030;7.584;2023-05-08T11:26:03;17.80;;;9.95;;
79249;SDS011;68679;51.030;7.584;2023-05-08T11:28:37;17.77;;;11.32;;
79249;SDS011;68679;51.030;7.584;2023-05-08T11:31:05;15.98;;;10.48;;
79249;SDS011;68679;51.030;7.584;2023-05-08T11:33:32;17.15;;;10.13;;
79249;SDS011;68679;51.030;7.584;2023-05-08T11:38:50;15.80;;;10.77;;
79249;SDS011;68679;51.030;7.584;2023-05-08T11:41:32;13.73;;;9.57;;
79249;SDS011;68679;51.030;7.584;2023-05-08T11:49:23;17.50;;;10.32;;
79249;SDS011;68679;51.030;7.584;2023-05-08T11:51:51;17.15;;;10.48;;
79249;SDS011;68679;51.030;7.584;2023-05-08T11:54:22;14.90;;;10.27;;
79249;SDS011;68679;51.030;7.584;2023-05-08T11:56:48;14.85;;;9.60;;
79249;SDS011;68679;51.030;7.584;2023-05-08T11:59:15;15.88;;;10.27;;
79249;SDS011;68679;51.030;7.584;2023-05-08T12:01:40;18.58;;;10.73;;
79249;SDS011;68679;51.030;7.584;2023-05-08T12:04:07;16.50;;;10.13;;
79249;SDS011;68679;51.030;7.584;2023-05-08T12:06:35;17.02;;;10.65;;
79249;SDS011;68679;51.030;7.584;2023-05-08T12:09:03;13.25;;;9.68;;
79249;SDS011;68679;51.030;7.584;2023-05-08T12:11:34;15.57;;;9.98;;
79249;SDS011;68679;51.030;7.584;2023-05-08T12:14:00;16.48;;;10.32;;
79249;SDS011;68679;51.030;7.584;2023-05-08T12:16:25;16.60;;;10.87;;
79249;SDS011;68679;51.030;7.584;2023-05-08T12:18:51;17.83;;;10.43;;
79249;SDS011;68679;51.030;7.584;2023-05-08T12:21:17;15.32;;;10.23;;
79249;SDS011;68679;51.030;7.584;2023-05-08T12:23:43;15.85;;;11.05;;
79249;SDS011;68679;51.030;7.584;2023-05-08T12:26:08;20.25;;;12.13;;
79249;SDS011;68679;51.030;7.584;2023-05-08T12:28:34;16.17;;;10.80;;
79249;SDS011;68679;51.030;7.584;2023-05-08T12:30:59;17.53;;;11.10;;
79249;SDS011;68679;51.030;7.584;2023-05-08T12:33:25;17.02;;;11.70;;
79249;SDS011;68679;51.030;7.584;2023-05-08T12:35:52;19.98;;;12.35;;
79249;SDS011;68679;51.030;7.584;2023-05-08T12:38:23;18.52;;;12.43;;
79249;SDS011;68679;51.030;7.584;2023-05-08T12:40:50;19.70;;;11.75;;
79249;SDS011;68679;51.030;7.584;2023-05-08T12:43:19;19.38;;;10.93;;
79249;SDS011;68679;51.030;7.584;2023-05-08T12:45:45;16.23;;;11.32;;
79249;SDS011;68679;51.030;7.584;2023-05-08T12:48:11;16.55;;;10.73;;
79249;SDS011;68679;51.030;7.584;2023-05-08T12:50:38;16.42;;;11.50;;
79249;SDS011;68679;51.030;7.584;2023-05-08T12:53:17;17.77;;;12.43;;
79249;SDS011;68679;51.030;7.584;2023-05-08T12:55:57;19.55;;;11.48;;
79249;SDS011;68679;51.030;7.584;2023-05-08T12:58:26;16.85;;;11.25;;
79249;SDS011;68679;51.030;7.584;2023-05-08T13:00:53;20.88;;;12.13;;
79249;SDS011;68679;51.030;7.584;2023-05-08T13:03:29;19.10;;;11.80;;
79249;SDS011;68679;51.030;7.584;2023-05-08T13:05:55;17.98;;;12.38;;
79249;SDS011;68679;51.030;7.584;2023-05-08T13:08:55;19.80;;;11.93;;
79249;SDS011;68679;51.030;7.584;2023-05-08T13:11:26;17.08;;;11.48;;
79249;SDS011;68679;51.030;7.584;2023-05-08T13:13:54;21.83;;;11.65;;
79249;SDS011;68679;51.030;7.584;2023-05-08T13:16:19;16.52;;;11.70;;
79249;SDS011;68679;51.030;7.584;2023-05-08T13:18:44;16.43;;;11.37;;
79249;SDS011;68679;51.030;7.584;2023-05-08T13:21:10;19.33;;;11.70;;
79249;SDS011;68679;51.030;7.584;2023-05-08T13:23:35;17.47;;;11.43;;
79249;SDS011;68679;51.030;7.584;2023-05-08T13:26:00;18.53;;;12.47;;
79249;SDS011;68679;51.030;7.584;2023-05-08T13:28:25;18.50;;;11.33;;
79249;SDS011;68679;51.030;7.584;2023-05-08T13:30:51;18.60;;;12.80;;
79249;SDS011;68679;51.030;7.584;2023-05-08T13:33:16;16.07;;;11.13;;
79249;SDS011;68679;51.030;7.584;2023-05-08T13:35:41;20.70;;;12.23;;
79249;SDS011;68679;51.030;7.584;2023-05-08T13:38:07;18.65;;;12.75;;
79249;SDS011;68679;51.030;7.584;2023-05-08T13:40:32;20.13;;;12.50;;
79249;SDS011;68679;51.030;7.584;2023-05-08T13:42:57;20.27;;;11.93;;
79249;SDS011;68679;51.030;7.584;2023-05-08T13:45:23;21.00;;;12.03;;
79249;SDS011;68679;51.030;7.584;2023-05-08T13:47:48;16.50;;;11.77;;
79249;SDS011;68679;51.030;7.584;2023-05-08T13:50:14;19.90;;;13.40;;
79249;SDS011;68679;51.030;7.584;2023-05-08T13:52:40;20.38;;;12.02;;
79249;SDS011;68679;51.030;7.584;2023-05-08T13:55:07;20.27;;;13.15;;
79249;SDS011;68679;51.030;7.584;2023-05-08T13:57:33;19.90;;;12.45;;
79249;SDS011;68679;51.030;7.584;2023-05-08T13:59:59;19.55;;;12.05;;
79249;SDS011;68679;51.030;7.584;2023-05-08T14:02:24;18.50;;;11.60;;
79249;SDS011;68679;51.030;7.584;2023-05-08T14:04:50;19.35;;;12.43;;
79249;SDS011;68679;51.030;7.584;2023-05-08T14:07:15;21.10;;;12.30;;
79249;SDS011;68679;51.030;7.584;2023-05-08T14:09:42;17.08;;;12.32;;
79249;SDS011;68679;51.030;7.584;2023-05-08T14:12:08;21.05;;;11.95;;
79249;SDS011;68679;51.030;7.584;2023-05-08T14:14:33;19.13;;;11.30;;
79249;SDS011;68679;51.030;7.584;2023-05-08T14:16:58;19.93;;;11.70;;
79249;SDS011;68679;51.030;7.584;2023-05-08T14:19:23;26.77;;;16.37;;
79249;SDS011;68679;51.030;7.584;2023-05-08T14:21:49;41.97;;;24.43;;
79249;SDS011;68679;51.030;7.584;2023-05-08T14:24:15;19.10;;;12.40;;
79249;SDS011;68679;51.030;7.584;2023-05-08T14:26:40;17.17;;;12.63;;
79249;SDS011;68679;51.030;7.584;2023-05-08T14:29:06;18.60;;;10.90;;
79249;SDS011;68679;51.030;7.584;2023-05-08T14:31:31;19.57;;;14.07;;
79249;SDS011;68679;51.030;7.584;2023-05-08T14:33:56;19.33;;;12.13;;
79249;SDS011;68679;51.030;7.584;2023-05-08T14:36:22;20.53;;;10.33;;
79249;SDS011;68679;51.030;7.584;2023-05-08T14:38:47;12.90;;;9.07;;
79249;SDS011;68679;51.030;7.584;2023-05-08T14:41:12;12.65;;;10.18;;
79249;SDS011;68679;51.030;7.584;2023-05-08T14:43:38;15.07;;;9.20;;
79249;SDS011;68679;51.030;7.584;2023-05-08T14:46:03;12.63;;;8.07;;
79249;SDS011;68679;51.030;7.584;2023-05-08T14:48:28;15.02;;;8.93;;
79249;SDS011;68679;51.030;7.584;2023-05-08T14:50:54;10.37;;;8.03;;
79249;SDS011;68679;51.030;7.584;2023-05-08T14:53:20;10.57;;;7.13;;
79249;SDS011;68679;51.030;7.584;2023-05-08T14:55:45;9.20;;;6.90;;
79249;SDS011;68679;51.030;7.584;2023-05-08T14:58:11;14.83;;;13.33;;
79249;SDS011;68679;51.030;7.584;2023-05-08T15:00:36;12.33;;;8.07;;
79249;SDS011;68679;51.030;7.584;2023-05-08T15:03:01;9.60;;;6.53;;
79249;SDS011;68679;51.030;7.584;2023-05-08T15:05:27;10.13;;;6.07;;
79249;SDS011;68679;51.030;7.584;2023-05-08T15:07:52;9.60;;;6.30;;
79249;SDS011;68679;51.030;7.584;2023-05-08T15:10:18;9.68;;;6.20;;
79249;SDS011;68679;51.030;7.584;2023-05-08T15:12:43;11.83;;;8.93;;
79249;SDS011;68679;51.030;7.584;2023-05-08T15:15:08;8.30;;;6.13;;
79249;SDS011;68679;51.030;7.584;2023-05-08T15:17:34;7.63;;;5.50;;